Shongopovi, Arizona
Current Conditions -  °F | °C
As of 6:56 PM on Friday 28 Nov 2014 (Local Time) from KINW Reporting Station
Clear Clear  
Wind Chill: 42°   Ceiling: Unl
Heat Index: 47°   Visibility: 10mi
Dew Point:   Wind: 12mph
Humidity: 21%   Direction: 210°SSW
Pressure: 30.05"   Gusts: NA
Location:  35.9162°N, 110.658°W
Report Text: KINW 290156Z AUTO 21010KT 10SM CLR 08/M13 A3005 RMK AO2 SLP176 T00831128
Loading
Personal Weather Stations






























Interactive Weather Map New forecast layout! Learn more

10-Day Weather Forecast

Advertisements
Track Severe Weather on mobile